createdAt,value
2018-08-31T00:00:11.318Z,2.60
2018-08-31T00:01:11.308Z,2.30
2018-08-31T00:02:11.324Z,2.80
2018-08-31T00:03:11.285Z,2.20
2018-08-31T00:04:11.273Z,2.40
2018-08-31T00:05:11.264Z,2.50
2018-08-31T00:06:11.253Z,2.50
2018-08-31T00:07:11.242Z,2.70
2018-08-31T00:08:11.243Z,2.70
2018-08-31T00:09:11.219Z,2.60
2018-08-31T00:10:11.211Z,2.50
2018-08-31T00:11:11.198Z,2.80
2018-08-31T00:12:11.186Z,2.60
2018-08-31T00:13:11.187Z,2.30
2018-08-31T00:14:11.168Z,2.50
2018-08-31T00:15:11.153Z,2.60
2018-08-31T00:16:11.140Z,2.50
2018-08-31T00:17:11.132Z,2.70
2018-08-31T00:18:11.153Z,2.50
2018-08-31T00:19:11.113Z,2.70
2018-08-31T00:20:11.110Z,2.80
2018-08-31T00:21:11.086Z,2.70
2018-08-31T00:22:11.075Z,2.70
2018-08-31T00:23:11.067Z,2.50
2018-08-31T00:24:11.070Z,2.40
2018-08-31T00:25:11.062Z,3.00
2018-08-31T00:26:11.034Z,3.00
2018-08-31T00:27:11.022Z,2.40
2018-08-31T00:28:11.009Z,2.60
2018-08-31T00:29:11.004Z,2.60
2018-08-31T00:30:10.989Z,2.70
2018-08-31T00:31:10.993Z,2.30
2018-08-31T00:32:10.968Z,2.40
2018-08-31T00:33:10.967Z,2.60
2018-08-31T00:34:10.983Z,3.10
2018-08-31T00:35:10.934Z,2.80
2018-08-31T00:36:10.922Z,2.30
2018-08-31T00:37:10.916Z,2.80
2018-08-31T00:38:10.899Z,2.10
2018-08-31T00:39:10.889Z,2.70
2018-08-31T00:40:10.892Z,2.20
2018-08-31T00:41:10.866Z,2.70
2018-08-31T00:42:10.856Z,2.60
2018-08-31T00:43:10.880Z,2.80
2018-08-31T00:44:10.832Z,3.00
2018-08-31T00:45:10.823Z,2.60
2018-08-31T00:46:10.809Z,2.80
2018-08-31T00:47:10.801Z,2.50
2018-08-31T00:48:10.791Z,2.80
2018-08-31T00:49:10.790Z,2.50
2018-08-31T00:50:10.763Z,2.60
2018-08-31T00:51:10.755Z,2.60
2018-08-31T00:52:10.746Z,2.60
2018-08-31T00:53:10.733Z,3.00
2018-08-31T00:54:10.736Z,2.30
2018-08-31T00:55:10.710Z,2.30
2018-08-31T00:56:10.714Z,2.30
2018-08-31T00:57:10.689Z,2.20
2018-08-31T00:58:10.675Z,2.20
2018-08-31T00:59:10.667Z,2.60
2018-08-31T01:00:10.653Z,2.40
2018-08-31T01:01:10.660Z,2.70
2018-08-31T01:02:10.633Z,2.30
2018-08-31T01:03:10.623Z,2.10
2018-08-31T01:04:10.616Z,2.00
2018-08-31T01:05:10.601Z,2.30
2018-08-31T01:06:10.607Z,2.40
2018-08-31T01:07:10.576Z,1.90
2018-08-31T01:08:10.564Z,2.10
2018-08-31T01:09:10.553Z,2.40
2018-08-31T01:10:10.542Z,1.80
2018-08-31T01:11:10.538Z,2.00
2018-08-31T01:12:10.537Z,1.80
2018-08-31T01:13:10.510Z,2.10
2018-08-31T01:14:10.498Z,1.90
2018-08-31T01:15:10.488Z,1.90
2018-08-31T01:16:10.475Z,2.70
2018-08-31T01:17:10.480Z,2.10
2018-08-31T01:18:10.460Z,1.80
2018-08-31T01:19:10.446Z,1.80
2018-08-31T01:20:10.431Z,2.30
2018-08-31T01:21:10.420Z,2.20
2018-08-31T01:22:10.423Z,1.80
2018-08-31T01:23:10.402Z,1.90
2018-08-31T01:24:10.389Z,1.90
2018-08-31T01:25:10.389Z,1.80
2018-08-31T01:26:10.363Z,2.30
2018-08-31T01:27:10.369Z,1.90
2018-08-31T01:28:10.342Z,2.10
2018-08-31T01:29:10.330Z,2.20
2018-08-31T01:30:10.324Z,2.00
2018-08-31T01:31:10.326Z,2.10
2018-08-31T01:32:10.305Z,2.00
2018-08-31T01:33:10.286Z,2.50
2018-08-31T01:34:10.281Z,1.80
2018-08-31T01:35:10.269Z,2.30
2018-08-31T01:36:10.269Z,2.00
2018-08-31T01:37:10.246Z,1.90
2018-08-31T01:38:10.244Z,2.20
2018-08-31T01:39:10.221Z,1.90
2018-08-31T01:40:10.208Z,2.30
2018-08-31T01:41:10.218Z,2.40
2018-08-31T01:42:10.189Z,2.30
2018-08-31T01:43:10.176Z,2.10
2018-08-31T01:44:10.179Z,2.10
2018-08-31T01:45:10.169Z,2.10
2018-08-31T01:46:10.164Z,2.30
2018-08-31T01:47:10.131Z,2.50
2018-08-31T01:48:10.123Z,2.20
2018-08-31T01:49:10.111Z,2.30
2018-08-31T01:50:10.100Z,2.20
2018-08-31T01:51:10.091Z,2.60
2018-08-31T01:52:10.093Z,1.90
2018-08-31T01:53:10.067Z,2.00
2018-08-31T01:54:10.056Z,2.30
2018-08-31T01:55:10.043Z,1.90
2018-08-31T01:56:10.030Z,1.70
2018-08-31T01:57:10.036Z,1.80
2018-08-31T01:58:10.010Z,2.00
2018-08-31T01:59:09.998Z,2.10
2018-08-31T02:00:10.006Z,1.70
2018-08-31T02:01:09.977Z,1.90
2018-08-31T02:02:09.966Z,1.90
2018-08-31T02:03:09.952Z,2.30
2018-08-31T02:04:09.967Z,1.70
2018-08-31T02:05:09.933Z,1.80
2018-08-31T02:06:09.937Z,1.90
2018-08-31T02:07:09.908Z,1.80
2018-08-31T02:08:09.896Z,1.90
2018-08-31T02:09:09.888Z,1.70
2018-08-31T02:10:09.876Z,1.70
2018-08-31T02:11:09.867Z,1.80
2018-08-31T02:12:09.869Z,1.60
2018-08-31T02:13:09.855Z,1.90
2018-08-31T02:14:09.832Z,1.60
2018-08-31T02:15:09.818Z,1.60
2018-08-31T02:16:09.808Z,1.60
2018-08-31T02:17:09.825Z,1.70
2018-08-31T02:18:09.789Z,1.60
2018-08-31T02:19:09.774Z,1.60
2018-08-31T02:20:09.766Z,1.60
2018-08-31T02:21:09.755Z,1.70
2018-08-31T02:22:09.743Z,1.60
2018-08-31T02:23:09.755Z,1.80
2018-08-31T02:24:09.720Z,1.80
2018-08-31T02:25:09.711Z,1.70
2018-08-31T02:26:09.700Z,1.70
2018-08-31T02:27:09.688Z,1.90
2018-08-31T02:28:09.684Z,1.60
2018-08-31T02:29:09.680Z,2.00
2018-08-31T02:30:09.655Z,1.90
2018-08-31T02:31:09.646Z,1.90
2018-08-31T02:32:09.641Z,1.60
2018-08-31T02:33:09.647Z,2.00
2018-08-31T02:34:09.614Z,1.80
2018-08-31T02:35:09.599Z,1.60
2018-08-31T02:36:09.589Z,1.50
2018-08-31T02:37:09.581Z,1.70
2018-08-31T02:38:09.570Z,1.50
2018-08-31T02:39:09.622Z,1.20
2018-08-31T02:40:09.579Z,1.50
2018-08-31T02:41:09.536Z,1.40
2018-08-31T02:42:09.523Z,1.40
2018-08-31T02:43:09.515Z,1.40
2018-08-31T02:44:09.502Z,1.60
2018-08-31T02:45:09.489Z,1.40
2018-08-31T02:46:09.495Z,1.40
2018-08-31T02:47:09.484Z,1.50
2018-08-31T02:48:09.456Z,1.50
2018-08-31T02:49:09.447Z,1.20
2018-08-31T02:50:09.437Z,1.60
2018-08-31T02:51:09.426Z,1.80
2018-08-31T02:52:09.427Z,2.30
2018-08-31T02:53:09.404Z,2.10
2018-08-31T02:54:09.393Z,1.90
2018-08-31T02:55:09.382Z,3.00
2018-08-31T02:56:09.369Z,3.50
2018-08-31T02:57:09.373Z,4.20
2018-08-31T02:58:09.363Z,4.90
2018-08-31T02:59:09.338Z,3.50
2018-08-31T03:00:09.329Z,2.70
2018-08-31T03:01:09.315Z,3.90
2018-08-31T03:02:09.305Z,5.50
2018-08-31T03:03:09.308Z,5.00
2018-08-31T03:04:09.281Z,5.80
2018-08-31T03:05:09.269Z,5.60
2018-08-31T03:06:09.274Z,5.30
2018-08-31T03:07:09.250Z,4.20
2018-08-31T03:08:09.252Z,3.80
2018-08-31T03:09:09.225Z,3.70
2018-08-31T03:10:09.216Z,3.60
2018-08-31T03:11:09.206Z,3.80
2018-08-31T03:12:09.195Z,3.80
2018-08-31T03:13:09.196Z,4.10
2018-08-31T03:14:09.184Z,3.80
2018-08-31T03:15:09.159Z,3.50
2018-08-31T03:16:09.149Z,3.80
2018-08-31T03:17:09.139Z,3.70
2018-08-31T03:18:09.129Z,3.30
2018-08-31T03:19:09.130Z,3.20
2018-08-31T03:20:09.110Z,3.80
2018-08-31T03:21:09.149Z,3.80
2018-08-31T03:22:09.082Z,3.60
2018-08-31T03:23:09.074Z,3.70
2018-08-31T03:24:09.077Z,4.80
2018-08-31T03:25:09.051Z,3.80
2018-08-31T03:26:09.038Z,4.80
2018-08-31T03:27:09.031Z,4.40
2018-08-31T03:28:09.019Z,4.80
2018-08-31T03:29:09.049Z,5.70
2018-08-31T03:30:08.998Z,5.90
2018-08-31T03:31:08.986Z,6.10
2018-08-31T03:32:08.975Z,5.60
2018-08-31T03:33:08.962Z,5.50
2018-08-31T03:34:08.957Z,7.30
2018-08-31T03:35:08.954Z,7.50
2018-08-31T03:36:08.931Z,7.40
2018-08-31T03:37:08.918Z,7.10
2018-08-31T03:38:08.908Z,7.00
2018-08-31T03:39:08.899Z,6.90
2018-08-31T03:40:08.912Z,6.20
2018-08-31T03:41:08.889Z,6.50
2018-08-31T03:42:08.879Z,7.00
2018-08-31T03:43:08.856Z,6.10
2018-08-31T03:44:08.845Z,6.30
2018-08-31T03:45:08.837Z,6.70
2018-08-31T03:46:08.823Z,7.10
2018-08-31T03:47:08.823Z,7.60
2018-08-31T03:48:08.797Z,6.10
2018-08-31T03:49:08.789Z,6.80
2018-08-31T03:50:08.778Z,6.90
2018-08-31T03:51:08.764Z,6.50
2018-08-31T03:52:08.770Z,6.60
2018-08-31T03:53:08.767Z,6.30
2018-08-31T03:54:08.732Z,6.00
2018-08-31T03:55:08.722Z,7.30
2018-08-31T03:56:08.710Z,6.40
2018-08-31T03:57:08.703Z,6.70
2018-08-31T03:58:08.688Z,6.50
2018-08-31T03:59:08.692Z,7.10
2018-08-31T04:00:08.665Z,7.10
2018-08-31T04:01:08.656Z,7.70
2018-08-31T04:02:08.646Z,8.50
2018-08-31T04:03:08.646Z,8.50
2018-08-31T04:04:08.625Z,8.20
2018-08-31T04:05:08.613Z,9.70
2018-08-31T04:06:08.615Z,9.50
2018-08-31T04:07:08.589Z,10.20
2018-08-31T04:08:08.576Z,10.20
2018-08-31T04:09:08.565Z,9.80
2018-08-31T04:10:08.568Z,10.10
2018-08-31T04:11:08.547Z,10.10
2018-08-31T04:12:08.576Z,10.40
2018-08-31T04:13:08.522Z,10.00
2018-08-31T04:14:08.513Z,11.00
2018-08-31T04:15:08.574Z,9.80
2018-08-31T04:16:08.490Z,10.70
2018-08-31T04:17:08.478Z,10.50
2018-08-31T04:18:08.482Z,9.90
2018-08-31T04:19:08.455Z,12.20
2018-08-31T04:20:08.444Z,10.50
2018-08-31T04:21:08.461Z,11.50
2018-08-31T04:22:08.428Z,10.80
2018-08-31T04:23:08.415Z,10.00
2018-08-31T04:24:08.408Z,10.00
2018-08-31T04:25:08.390Z,9.40
2018-08-31T04:26:08.377Z,10.10
2018-08-31T04:27:08.382Z,9.70
2018-08-31T04:28:08.357Z,10.60
2018-08-31T04:29:08.349Z,11.30
2018-08-31T04:30:08.335Z,11.30
2018-08-31T04:31:08.341Z,11.40
2018-08-31T04:32:08.333Z,10.80
2018-08-31T04:33:08.306Z,11.90
2018-08-31T04:34:08.317Z,11.70
2018-08-31T04:35:08.285Z,10.80
2018-08-31T04:36:08.272Z,11.40
2018-08-31T04:37:08.265Z,10.70
2018-08-31T04:38:08.269Z,10.80
2018-08-31T04:39:08.239Z,12.40
2018-08-31T04:40:08.232Z,11.10
2018-08-31T04:41:08.219Z,11.50
2018-08-31T04:42:08.205Z,11.20
2018-08-31T04:43:08.201Z,10.80
2018-08-31T04:44:08.201Z,11.80
2018-08-31T04:45:08.187Z,11.70
2018-08-31T04:46:08.163Z,12.40
2018-08-31T04:47:08.155Z,11.50
2018-08-31T04:48:08.140Z,12.10
2018-08-31T04:49:08.139Z,12.10
2018-08-31T04:50:08.120Z,11.30
2018-08-31T04:51:08.119Z,10.40
2018-08-31T04:52:08.097Z,10.30
2018-08-31T04:53:08.083Z,9.90
2018-08-31T04:54:08.077Z,9.90
2018-08-31T04:55:08.080Z,9.20
2018-08-31T04:56:08.061Z,9.50
2018-08-31T04:57:08.042Z,8.90
2018-08-31T04:58:08.034Z,9.70
2018-08-31T04:59:08.031Z,9.30
2018-08-31T05:00:08.010Z,8.00
2018-08-31T05:01:07.999Z,8.50
2018-08-31T05:02:07.983Z,8.20
2018-08-31T05:03:07.988Z,8.00
2018-08-31T05:04:07.963Z,8.20
2018-08-31T05:05:07.951Z,8.30
2018-08-31T05:06:07.941Z,8.30
2018-08-31T05:07:07.935Z,8.40
2018-08-31T05:08:07.921Z,8.20
2018-08-31T05:09:07.918Z,8.10
2018-08-31T05:10:07.933Z,8.10
2018-08-31T05:11:07.885Z,7.80
2018-08-31T05:12:07.873Z,7.40
2018-08-31T05:13:07.861Z,7.40
2018-08-31T05:14:07.854Z,7.90
2018-08-31T05:15:07.840Z,8.00
2018-08-31T05:16:07.866Z,7.40
2018-08-31T05:17:07.817Z,7.70
2018-08-31T05:18:07.806Z,7.70
2018-08-31T05:19:07.796Z,7.20
2018-08-31T05:20:07.785Z,6.90
2018-08-31T05:21:07.776Z,6.90
2018-08-31T05:22:07.787Z,7.10
2018-08-31T05:23:07.771Z,7.50
2018-08-31T05:24:07.743Z,7.40
2018-08-31T05:25:07.732Z,7.30
2018-08-31T05:26:07.717Z,7.20
2018-08-31T05:27:07.708Z,6.90
2018-08-31T05:28:07.718Z,7.50
2018-08-31T05:29:07.684Z,7.60
2018-08-31T05:30:07.675Z,7.20
2018-08-31T05:31:07.665Z,7.50
2018-08-31T05:32:07.665Z,7.10
2018-08-31T05:33:07.657Z,6.90
2018-08-31T05:34:07.702Z,6.50
2018-08-31T05:35:07.619Z,6.30
2018-08-31T05:36:07.608Z,6.50
2018-08-31T05:37:07.595Z,6.30
2018-08-31T05:38:07.585Z,6.20
2018-08-31T05:39:07.589Z,6.00
2018-08-31T05:40:07.565Z,6.00
2018-08-31T05:41:07.551Z,6.10
2018-08-31T05:42:07.539Z,6.00
2018-08-31T05:43:07.539Z,7.10
2018-08-31T05:44:07.535Z,5.90
2018-08-31T05:45:07.522Z,6.00
2018-08-31T05:46:07.497Z,6.70
2018-08-31T05:47:07.486Z,7.10
2018-08-31T05:48:07.474Z,6.70
2018-08-31T05:49:07.465Z,6.50
2018-08-31T05:50:07.474Z,5.90
2018-08-31T05:51:07.442Z,6.30
2018-08-31T05:52:07.433Z,6.40
2018-08-31T05:53:07.421Z,6.60
2018-08-31T05:54:07.409Z,6.70
2018-08-31T05:55:07.396Z,5.90
2018-08-31T05:56:07.404Z,6.30
2018-08-31T05:57:07.380Z,6.20
2018-08-31T05:58:07.368Z,6.00
2018-08-31T05:59:07.356Z,7.60
2018-08-31T06:00:07.339Z,6.50
2018-08-31T06:01:07.348Z,7.00
2018-08-31T06:02:07.360Z,6.70
2018-08-31T06:03:07.323Z,6.20
2018-08-31T06:04:07.312Z,6.60
2018-08-31T06:05:07.287Z,7.10
2018-08-31T06:06:07.278Z,6.40
2018-08-31T06:07:07.264Z,6.60
2018-08-31T06:08:07.255Z,6.10
2018-08-31T06:09:07.265Z,6.40
2018-08-31T06:10:07.234Z,6.80
2018-08-31T06:11:07.221Z,6.00
2018-08-31T06:12:07.211Z,6.70
2018-08-31T06:13:07.202Z,6.60
2018-08-31T06:14:07.194Z,6.10
2018-08-31T06:15:07.193Z,6.30
2018-08-31T06:16:07.166Z,5.50
2018-08-31T06:17:07.160Z,6.60
2018-08-31T06:18:07.147Z,5.90
2018-08-31T06:19:07.136Z,6.10
2018-08-31T06:20:07.138Z,5.90
2018-08-31T06:21:07.223Z,5.80
2018-08-31T06:22:07.113Z,6.00
2018-08-31T06:23:07.090Z,5.80
2018-08-31T06:24:07.081Z,5.80
2018-08-31T06:25:07.094Z,6.10
2018-08-31T06:26:07.058Z,7.00
2018-08-31T06:27:07.095Z,5.60
2018-08-31T06:28:07.040Z,5.40
2018-08-31T06:29:07.025Z,5.30
2018-08-31T06:30:07.018Z,5.80
2018-08-31T06:31:07.027Z,6.10
2018-08-31T06:32:06.993Z,5.50
2018-08-31T06:33:06.981Z,6.10
2018-08-31T06:34:06.970Z,5.50
2018-08-31T06:35:06.958Z,5.90
2018-08-31T06:36:06.948Z,5.60
2018-08-31T06:37:06.952Z,5.80
2018-08-31T06:38:06.925Z,6.40
2018-08-31T06:39:06.916Z,5.70
2018-08-31T06:40:06.904Z,6.20
2018-08-31T06:41:06.892Z,6.70
2018-08-31T06:42:06.893Z,6.50
2018-08-31T06:43:06.868Z,6.30
2018-08-31T06:44:06.862Z,6.50
2018-08-31T06:45:06.863Z,6.30
2018-08-31T06:46:06.836Z,6.40
2018-08-31T06:47:06.838Z,6.40
2018-08-31T06:48:06.816Z,6.10
2018-08-31T06:49:06.803Z,6.20
2018-08-31T06:50:06.807Z,5.80
2018-08-31T06:51:06.780Z,5.90
2018-08-31T06:52:06.770Z,5.80
2018-08-31T06:53:06.759Z,5.70
2018-08-31T06:54:06.750Z,5.50
2018-08-31T06:55:06.758Z,5.50
2018-08-31T06:56:06.727Z,5.70
2018-08-31T06:57:06.718Z,5.50
2018-08-31T06:58:06.719Z,5.50
2018-08-31T06:59:06.693Z,5.00
2018-08-31T07:00:06.682Z,5.10
2018-08-31T07:01:06.697Z,5.20
2018-08-31T07:02:06.661Z,5.10
2018-08-31T07:03:06.650Z,4.80
2018-08-31T07:04:06.636Z,5.20
2018-08-31T07:05:06.624Z,5.10
2018-08-31T07:06:06.615Z,5.30
2018-08-31T07:07:06.621Z,5.10
2018-08-31T07:08:06.591Z,4.70
2018-08-31T07:09:06.583Z,5.50
2018-08-31T07:10:06.572Z,5.60
2018-08-31T07:11:06.559Z,5.00
2018-08-31T07:12:06.618Z,5.00
2018-08-31T07:13:06.539Z,5.70
2018-08-31T07:14:06.543Z,5.60
2018-08-31T07:15:06.515Z,5.70
2018-08-31T07:16:06.503Z,6.20
2018-08-31T07:17:06.498Z,6.10
2018-08-31T07:18:06.483Z,5.90
2018-08-31T07:19:06.488Z,6.00
2018-08-31T07:20:06.459Z,6.20
2018-08-31T07:21:06.448Z,6.00
2018-08-31T07:22:06.442Z,5.80
2018-08-31T07:23:06.425Z,6.00
2018-08-31T07:24:06.441Z,6.10
2018-08-31T07:25:06.403Z,6.80
2018-08-31T07:26:06.411Z,6.30
2018-08-31T07:27:06.384Z,6.20
2018-08-31T07:28:06.372Z,6.40
2018-08-31T07:29:06.361Z,6.10
2018-08-31T07:30:06.372Z,6.00
2018-08-31T07:31:06.337Z,6.40
2018-08-31T07:32:06.353Z,6.20
2018-08-31T07:33:06.317Z,6.20
2018-08-31T07:34:06.307Z,6.70
2018-08-31T07:35:06.292Z,6.60
2018-08-31T07:36:06.300Z,6.60
2018-08-31T07:37:06.273Z,7.10
2018-08-31T07:38:06.263Z,6.80
2018-08-31T07:39:06.251Z,6.50
2018-08-31T07:40:06.253Z,6.40
2018-08-31T07:41:06.247Z,6.80
2018-08-31T07:42:06.215Z,6.90
2018-08-31T07:43:06.207Z,7.40
2018-08-31T07:44:06.194Z,7.30
2018-08-31T07:45:06.184Z,6.20
2018-08-31T07:46:06.170Z,6.60
2018-08-31T07:47:06.177Z,7.20
2018-08-31T07:48:06.165Z,7.00
2018-08-31T07:49:06.140Z,7.70
2018-08-31T07:50:06.130Z,7.40
2018-08-31T07:51:06.116Z,7.30
2018-08-31T07:52:06.133Z,7.20
2018-08-31T07:53:06.094Z,6.80
2018-08-31T07:54:06.082Z,6.10
2018-08-31T07:55:06.075Z,6.60
2018-08-31T07:56:06.061Z,6.40
2018-08-31T07:57:06.052Z,6.40
2018-08-31T07:58:06.053Z,6.50
2018-08-31T07:59:06.031Z,6.70
2018-08-31T08:00:06.018Z,6.50
2018-08-31T08:01:06.011Z,6.50
2018-08-31T08:02:06.013Z,6.10
2018-08-31T08:03:05.987Z,6.00
2018-08-31T08:04:06.012Z,6.80
2018-08-31T08:05:05.964Z,7.30
2018-08-31T08:06:05.957Z,5.80
2018-08-31T08:07:05.946Z,5.10
2018-08-31T08:08:05.936Z,6.00
2018-08-31T08:09:05.920Z,6.90
2018-08-31T08:10:05.933Z,7.10
2018-08-31T08:11:05.898Z,6.50
2018-08-31T08:12:05.891Z,6.30
2018-08-31T08:13:05.877Z,5.70
2018-08-31T08:14:05.865Z,6.40
2018-08-31T08:15:05.857Z,6.00
2018-08-31T08:16:05.865Z,6.00
2018-08-31T08:17:05.835Z,5.00
2018-08-31T08:18:05.822Z,6.20
2018-08-31T08:19:05.810Z,5.30
2018-08-31T08:20:05.800Z,5.90
2018-08-31T08:21:05.789Z,7.20
2018-08-31T08:22:05.791Z,6.30
2018-08-31T08:23:05.810Z,6.20
2018-08-31T08:24:05.754Z,6.80
2018-08-31T08:25:05.757Z,7.30
2018-08-31T08:26:05.748Z,7.30
2018-08-31T08:27:05.729Z,6.90
2018-08-31T08:28:05.708Z,6.60
2018-08-31T08:29:05.701Z,6.70
2018-08-31T08:30:05.734Z,6.90
2018-08-31T08:31:05.675Z,5.90
2018-08-31T08:32:05.664Z,6.40
2018-08-31T08:33:05.654Z,6.10
2018-08-31T08:34:05.640Z,5.50
2018-08-31T08:35:05.631Z,5.60
2018-08-31T08:36:05.702Z,6.20
2018-08-31T08:37:05.605Z,6.50
2018-08-31T08:38:05.595Z,6.10
2018-08-31T08:39:05.591Z,6.30
2018-08-31T08:40:05.575Z,5.90
2018-08-31T08:41:05.580Z,5.70
2018-08-31T08:42:05.594Z,5.70
2018-08-31T08:43:05.553Z,6.10
2018-08-31T08:44:05.549Z,5.80
2018-08-31T08:45:05.520Z,5.60
2018-08-31T08:46:05.512Z,5.50
2018-08-31T08:47:05.497Z,5.80
2018-08-31T08:48:05.520Z,5.40
2018-08-31T08:49:05.471Z,5.90
2018-08-31T08:50:05.477Z,5.40
2018-08-31T08:51:05.454Z,5.60
2018-08-31T08:52:05.441Z,5.60
2018-08-31T08:53:05.443Z,5.40
2018-08-31T08:54:05.419Z,5.40
2018-08-31T08:55:05.407Z,5.80
2018-08-31T08:56:05.398Z,5.70
2018-08-31T08:57:05.385Z,6.80
2018-08-31T08:58:05.410Z,6.10
2018-08-31T08:59:05.364Z,6.20
2018-08-31T09:00:05.355Z,6.40
2018-08-31T09:01:05.381Z,5.70
2018-08-31T09:02:05.331Z,6.30
2018-08-31T09:03:05.321Z,7.10
2018-08-31T09:04:05.308Z,7.70
2018-08-31T09:05:05.299Z,7.50
2018-08-31T09:06:05.288Z,7.50
2018-08-31T09:07:05.318Z,8.00
2018-08-31T09:08:05.268Z,8.70
2018-08-31T09:09:05.256Z,7.90
2018-08-31T09:10:05.243Z,8.50
2018-08-31T09:11:05.235Z,7.80
2018-08-31T09:12:05.220Z,7.00
2018-08-31T09:13:05.226Z,7.40
2018-08-31T09:14:05.202Z,7.50
2018-08-31T09:15:05.191Z,8.30
2018-08-31T09:16:05.181Z,8.20
2018-08-31T09:17:05.166Z,8.90
2018-08-31T09:18:05.170Z,8.60
2018-08-31T09:19:05.146Z,8.90
2018-08-31T09:20:05.173Z,8.50
2018-08-31T09:21:05.125Z,9.00
2018-08-31T09:22:05.114Z,8.90
2018-08-31T09:23:05.128Z,8.70
2018-08-31T09:24:05.090Z,8.80
2018-08-31T09:25:05.079Z,9.00
2018-08-31T09:26:05.070Z,9.50
2018-08-31T09:27:05.062Z,9.60
2018-08-31T09:28:05.049Z,9.70
2018-08-31T09:29:05.084Z,10.20
2018-08-31T09:30:05.026Z,9.20
2018-08-31T09:31:05.016Z,9.00
2018-08-31T09:32:05.007Z,9.00
2018-08-31T09:33:04.993Z,9.60
2018-08-31T09:34:04.980Z,9.00
2018-08-31T09:35:04.988Z,9.50
2018-08-31T09:36:04.959Z,9.20
2018-08-31T09:37:04.947Z,9.50
2018-08-31T09:38:04.938Z,8.70
2018-08-31T09:39:04.932Z,8.80
2018-08-31T09:40:04.931Z,8.30
2018-08-31T09:41:04.906Z,7.90
2018-08-31T09:42:04.895Z,7.90
2018-08-31T09:43:04.888Z,8.10
2018-08-31T09:44:04.871Z,7.60
2018-08-31T09:45:04.873Z,7.70
2018-08-31T09:46:04.849Z,7.50
2018-08-31T09:47:04.840Z,8.60
2018-08-31T09:48:04.829Z,8.00
2018-08-31T09:49:04.821Z,8.20
2018-08-31T09:50:04.834Z,7.60
2018-08-31T09:51:04.797Z,7.20
2018-08-31T09:52:04.784Z,7.70
2018-08-31T09:53:04.775Z,6.60
2018-08-31T09:54:04.760Z,6.20
2018-08-31T09:55:04.754Z,6.80
2018-08-31T09:56:04.756Z,6.70
2018-08-31T09:57:04.747Z,6.90
2018-08-31T09:58:04.718Z,5.60
2018-08-31T09:59:04.707Z,6.60
2018-08-31T10:00:04.699Z,5.90
2018-08-31T10:01:04.687Z,6.00
2018-08-31T10:02:04.693Z,6.50
2018-08-31T10:03:04.679Z,6.30
2018-08-31T10:04:04.651Z,6.20
2018-08-31T10:05:04.647Z,6.20
2018-08-31T10:06:04.635Z,6.60
2018-08-31T10:07:04.645Z,6.40
2018-08-31T10:08:04.612Z,7.70
2018-08-31T10:09:04.598Z,7.10
2018-08-31T10:10:04.590Z,6.80
2018-08-31T10:11:04.576Z,6.20
2018-08-31T10:12:04.567Z,5.50
2018-08-31T10:13:04.574Z,5.40
2018-08-31T10:14:04.543Z,5.00
2018-08-31T10:15:04.532Z,5.70
2018-08-31T10:16:04.522Z,5.80
2018-08-31T10:17:04.512Z,6.00
2018-08-31T10:18:04.523Z,6.20
2018-08-31T10:19:04.487Z,5.40
2018-08-31T10:20:04.477Z,5.80
2018-08-31T10:21:04.466Z,6.60
2018-08-31T10:22:04.458Z,6.50
2018-08-31T10:23:04.444Z,6.20
2018-08-31T10:24:04.449Z,6.80
2018-08-31T10:25:04.446Z,6.60
2018-08-31T10:26:04.411Z,7.00
2018-08-31T10:27:04.402Z,7.00
2018-08-31T10:28:04.390Z,6.90
2018-08-31T10:29:04.382Z,7.20
2018-08-31T10:30:04.414Z,6.20
2018-08-31T10:31:04.370Z,6.20
2018-08-31T10:32:04.345Z,7.30
2018-08-31T10:33:04.336Z,7.10
2018-08-31T10:34:04.325Z,7.10
2018-08-31T10:35:04.355Z,7.50
2018-08-31T10:36:04.303Z,8.20
2018-08-31T10:37:04.292Z,7.70
2018-08-31T10:38:04.279Z,7.40
2018-08-31T10:39:04.268Z,7.90
2018-08-31T10:40:04.258Z,7.20
2018-08-31T10:41:04.260Z,7.40
2018-08-31T10:42:04.237Z,6.80
2018-08-31T10:43:04.228Z,6.80
2018-08-31T10:44:04.214Z,7.00
2018-08-31T10:45:04.204Z,5.90
2018-08-31T10:46:04.209Z,5.60
2018-08-31T10:47:04.199Z,5.50
2018-08-31T10:48:04.170Z,6.10
2018-08-31T10:49:04.164Z,4.80
2018-08-31T10:50:04.154Z,4.50
2018-08-31T10:51:04.142Z,4.70
2018-08-31T10:52:04.142Z,4.00
2018-08-31T10:53:04.118Z,4.50
2018-08-31T10:54:04.125Z,4.30
2018-08-31T10:55:04.097Z,4.50
2018-08-31T10:56:04.086Z,3.70
2018-08-31T10:57:04.089Z,3.80
2018-08-31T10:58:04.084Z,4.60
2018-08-31T10:59:04.052Z,4.00
2018-08-31T11:00:04.041Z,3.90
2018-08-31T11:01:04.031Z,3.70
2018-08-31T11:02:04.020Z,3.70
2018-08-31T11:03:04.007Z,3.80
2018-08-31T11:04:04.015Z,3.60
2018-08-31T11:05:03.987Z,3.70
2018-08-31T11:06:03.976Z,3.70
2018-08-31T11:07:03.968Z,3.30
2018-08-31T11:08:03.953Z,3.60
2018-08-31T11:09:03.943Z,3.50
2018-08-31T11:10:03.946Z,3.50
2018-08-31T11:11:03.919Z,3.50
2018-08-31T11:12:03.907Z,3.10
2018-08-31T11:13:03.955Z,3.30
2018-08-31T11:14:03.889Z,3.00
2018-08-31T11:15:03.965Z,3.10
2018-08-31T11:16:03.864Z,2.70
2018-08-31T11:17:03.863Z,3.10
2018-08-31T11:18:03.844Z,3.20
2018-08-31T11:19:03.831Z,3.30
2018-08-31T11:20:03.820Z,3.20
2018-08-31T11:21:03.825Z,2.90
2018-08-31T11:22:03.799Z,3.40
2018-08-31T11:23:03.793Z,3.00
2018-08-31T11:24:03.776Z,3.10
2018-08-31T11:25:03.789Z,3.20
2018-08-31T11:26:03.758Z,3.20
2018-08-31T11:27:03.746Z,3.10
2018-08-31T11:28:03.732Z,2.90
2018-08-31T11:29:03.737Z,3.20
2018-08-31T11:30:03.728Z,2.80
2018-08-31T11:31:03.704Z,2.90
2018-08-31T11:32:03.692Z,2.90
2018-08-31T11:33:03.677Z,2.90
2018-08-31T11:34:03.666Z,2.60
2018-08-31T11:35:03.702Z,2.70
2018-08-31T11:36:03.648Z,2.70
2018-08-31T11:37:03.635Z,2.30
2018-08-31T11:38:03.626Z,2.30
2018-08-31T11:39:03.616Z,2.50
2018-08-31T11:40:03.601Z,2.30
2018-08-31T11:41:03.610Z,2.40
2018-08-31T11:42:03.583Z,2.50
2018-08-31T11:43:03.571Z,2.10
2018-08-31T11:44:03.563Z,2.40
2018-08-31T11:45:03.548Z,2.10
2018-08-31T11:46:03.538Z,2.20
2018-08-31T11:47:03.539Z,1.90
2018-08-31T11:48:03.554Z,2.30
2018-08-31T11:49:03.506Z,2.30
2018-08-31T11:50:03.493Z,2.40
2018-08-31T11:51:03.481Z,2.40
2018-08-31T11:52:03.471Z,2.00
2018-08-31T11:53:03.460Z,1.80
2018-08-31T11:54:03.481Z,2.20
2018-08-31T11:55:03.468Z,2.00
2018-08-31T11:56:03.427Z,1.90
2018-08-31T11:57:03.418Z,1.90
2018-08-31T11:58:03.405Z,1.90
2018-08-31T11:59:03.397Z,2.40
2018-08-31T12:00:03.397Z,2.00
2018-08-31T12:01:03.442Z,2.00
2018-08-31T12:02:03.405Z,2.20
2018-08-31T12:03:03.353Z,2.30
2018-08-31T12:04:03.357Z,2.00
2018-08-31T12:05:03.336Z,2.20
2018-08-31T12:06:03.320Z,2.50
2018-08-31T12:07:03.323Z,2.60
2018-08-31T12:08:03.298Z,2.40
2018-08-31T12:09:03.284Z,2.40
2018-08-31T12:10:03.281Z,2.20
2018-08-31T12:11:03.288Z,2.40
2018-08-31T12:12:03.271Z,2.30
2018-08-31T12:13:03.242Z,2.10
2018-08-31T12:14:03.233Z,2.10
2018-08-31T12:15:03.221Z,2.20
2018-08-31T12:16:03.210Z,2.00
2018-08-31T12:17:03.197Z,2.00
2018-08-31T12:18:03.203Z,2.10
2018-08-31T12:19:03.174Z,2.30
2018-08-31T12:20:03.169Z,2.30
2018-08-31T12:21:03.154Z,1.80
2018-08-31T12:22:03.144Z,2.00
2018-08-31T12:23:03.151Z,2.00
2018-08-31T12:24:03.121Z,1.70
2018-08-31T12:25:03.109Z,1.40
2018-08-31T12:26:03.098Z,1.20
2018-08-31T12:27:03.090Z,1.60
2018-08-31T12:28:03.078Z,1.20
2018-08-31T12:29:03.079Z,1.60
2018-08-31T12:30:03.054Z,1.20
2018-08-31T12:31:03.045Z,1.10
2018-08-31T12:32:03.032Z,1.30
2018-08-31T12:33:03.021Z,1.50
2018-08-31T12:34:03.028Z,1.40
2018-08-31T12:35:03.001Z,1.10
2018-08-31T12:36:03.028Z,1.30
2018-08-31T12:37:02.979Z,1.00
2018-08-31T12:38:02.973Z,1.20
2018-08-31T12:39:02.973Z,1.10
2018-08-31T12:40:02.947Z,1.10
2018-08-31T12:41:02.940Z,0.90
2018-08-31T12:42:02.944Z,1.00
2018-08-31T12:43:02.917Z,1.00
2018-08-31T12:44:02.921Z,1.00
2018-08-31T12:45:02.913Z,1.30
2018-08-31T12:46:02.882Z,0.90
2018-08-31T12:47:02.873Z,0.90
2018-08-31T12:48:02.861Z,1.10
2018-08-31T12:49:02.855Z,1.30
2018-08-31T12:50:02.869Z,1.10
2018-08-31T12:51:02.835Z,1.00
2018-08-31T12:52:02.821Z,1.30
2018-08-31T12:53:02.815Z,0.90
2018-08-31T12:54:02.802Z,1.20
2018-08-31T12:55:02.790Z,1.00
2018-08-31T12:56:02.796Z,1.50
2018-08-31T12:57:02.776Z,1.00
2018-08-31T12:58:02.759Z,0.90
2018-08-31T12:59:02.748Z,0.90
2018-08-31T13:00:02.786Z,1.20
2018-08-31T13:01:02.738Z,1.10
2018-08-31T13:02:02.715Z,0.80
2018-08-31T13:03:02.705Z,0.80
2018-08-31T13:04:02.693Z,0.90
2018-08-31T13:05:02.681Z,0.90
2018-08-31T13:06:02.682Z,0.80
2018-08-31T13:07:02.682Z,1.10
2018-08-31T13:08:02.653Z,0.90
2018-08-31T13:09:02.635Z,0.70
2018-08-31T13:10:02.627Z,0.70
2018-08-31T13:11:02.646Z,0.80
2018-08-31T13:12:02.605Z,0.80
2018-08-31T13:13:02.598Z,0.70
2018-08-31T13:14:02.583Z,0.80
2018-08-31T13:15:02.574Z,0.70
2018-08-31T13:16:02.559Z,0.70
2018-08-31T13:17:02.561Z,0.60